Time;durP1;ratioP1;P1;durP2;ratioP2;P2;SDS_P1;SDS_P2;PMS_P1;PMS_P2;Temp;Humidity;BMP_temperature;BMP_pressure;BME280_temperature;BME280_humidity;BME280_pressure;Samples;Min_cycle;Max_cycle;Signal;HPM_P1;HPM_P2
2024/01/23 00:02:00;;;;;;;18.25;5.90;;;6.50;99.90;;;;;;5069249;28;20402;-66
2024/01/23 00:04:26;;;;;;;19.53;5.83;;;6.50;99.90;;;;;;5067513;28;20422;-66
2024/01/23 00:06:52;;;;;;;20.70;5.90;;;6.50;99.90;;;;;;5070765;28;20803;-66
2024/01/23 00:09:18;;;;;;;19.40;6.05;;;6.50;99.90;;;;;;5069063;28;20494;-65
2024/01/23 00:11:43;;;;;;;17.95;6.25;;;6.50;99.90;;;;;;5068868;28;20435;-66
2024/01/23 00:14:09;;;;;;;22.53;5.63;;;6.50;99.90;;;;;;5068494;28;20466;-66
2024/01/23 00:16:35;;;;;;;16.43;5.37;;;6.60;99.90;;;;;;5067632;28;20396;-66
2024/01/23 00:19:01;;;;;;;18.85;5.85;;;6.70;99.90;;;;;;5052572;28;20402;-66
2024/01/23 00:21:26;;;;;;;20.20;6.20;;;6.70;99.90;;;;;;5069914;28;20930;-65
2024/01/23 00:23:52;;;;;;;18.10;6.00;;;6.80;99.90;;;;;;5069453;28;20391;-66
2024/01/23 00:26:18;;;;;;;17.38;5.05;;;6.80;99.90;;;;;;5068664;28;20496;-66
2024/01/23 00:28:44;;;;;;;23.20;5.88;;;6.80;99.90;;;;;;5068479;28;20428;-65
2024/01/23 00:31:09;;;;;;;17.97;5.40;;;6.80;99.90;;;;;;5068810;28;20478;-66
2024/01/23 00:33:35;;;;;;;20.65;5.88;;;6.90;99.90;;;;;;5068562;28;20837;-66
2024/01/23 00:36:01;;;;;;;17.35;5.07;;;6.90;99.90;;;;;;5071406;28;20494;-66
2024/01/23 00:38:27;;;;;;;15.17;5.37;;;6.90;99.90;;;;;;5051909;28;20396;-66
2024/01/23 00:40:52;;;;;;;17.30;5.13;;;6.90;99.90;;;;;;5051831;28;20403;-66
2024/01/23 00:43:18;;;;;;;17.70;5.22;;;6.90;99.90;;;;;;5068795;28;20417;-66
2024/01/23 00:45:44;;;;;;;21.58;5.45;;;6.90;99.90;;;;;;5049459;28;20428;-66
2024/01/23 00:48:10;;;;;;;16.23;4.97;;;7.00;99.90;;;;;;5051261;28;20435;-66
2024/01/23 00:50:35;;;;;;;15.50;5.13;;;7.00;99.90;;;;;;5069431;28;20502;-66
2024/01/23 00:53:01;;;;;;;18.00;5.00;;;6.90;99.90;;;;;;5069211;28;20411;-66
2024/01/23 00:55:27;;;;;;;16.60;4.90;;;6.90;99.90;;;;;;5070510;28;20517;-66
2024/01/23 00:57:52;;;;;;;18.73;5.35;;;6.90;99.90;;;;;;5068124;28;21164;-66
2024/01/23 01:00:18;;;;;;;16.60;4.73;;;6.80;99.90;;;;;;5067676;28;20399;-66
2024/01/23 01:02:44;;;;;;;16.63;5.07;;;6.80;99.90;;;;;;5069910;28;20396;-66
2024/01/23 01:05:10;;;;;;;16.70;5.53;;;6.80;99.90;;;;;;5069402;28;20423;-66
2024/01/23 01:07:36;;;;;;;17.75;5.57;;;6.80;99.90;;;;;;5067930;28;20407;-66
2024/01/23 01:10:01;;;;;;;19.77;5.53;;;6.80;99.90;;;;;;5067448;28;20501;-66
2024/01/23 01:12:27;;;;;;;17.45;5.25;;;6.80;99.90;;;;;;5069271;28;20398;-66
2024/01/23 01:14:53;;;;;;;18.45;4.95;;;6.90;99.90;;;;;;5069285;28;20917;-66
2024/01/23 01:17:18;;;;;;;20.43;5.80;;;6.70;99.90;;;;;;5067744;28;20767;-66
2024/01/23 01:19:44;;;;;;;19.90;5.72;;;6.70;99.90;;;;;;5069232;28;20792;-66
2024/01/23 01:22:10;;;;;;;18.45;5.68;;;6.70;99.90;;;;;;5067335;28;20547;-66
2024/01/23 01:24:35;;;;;;;24.83;6.20;;;6.60;99.90;;;;;;5068055;28;20453;-66
2024/01/23 01:27:01;;;;;;;19.33;5.35;;;6.60;99.90;;;;;;5066167;28;20450;-66
2024/01/23 01:29:27;;;;;;;16.05;5.25;;;6.60;99.90;;;;;;5068145;28;20806;-66
2024/01/23 01:31:53;;;;;;;19.37;5.67;;;6.60;99.90;;;;;;5068313;28;20510;-66
2024/01/23 01:34:18;;;;;;;18.33;5.15;;;6.60;99.90;;;;;;5066900;28;20419;-66
2024/01/23 01:36:44;;;;;;;18.45;5.45;;;6.60;99.90;;;;;;5069101;28;20944;-66
2024/01/23 01:39:12;;;;;;;18.87;5.57;;;6.70;99.90;;;;;;5066998;28;20457;-66
2024/01/23 01:41:37;;;;;;;20.00;5.70;;;6.70;99.90;;;;;;5050335;28;20424;-66
2024/01/23 01:44:03;;;;;;;19.73;5.40;;;6.70;99.90;;;;;;5067702;28;20481;-66
2024/01/23 01:46:29;;;;;;;17.17;5.50;;;6.70;99.90;;;;;;5066769;28;20854;-66
2024/01/23 01:48:55;;;;;;;17.10;5.47;;;6.70;99.90;;;;;;5068186;28;20469;-66
2024/01/23 01:51:23;;;;;;;15.00;5.10;;;6.70;99.90;;;;;;5068364;28;20406;-66
2024/01/23 01:53:50;;;;;;;19.50;5.60;;;6.70;99.90;;;;;;5066584;28;20772;-66
2024/01/23 01:56:22;;;;;;;20.17;5.60;;;6.70;99.90;;;;;;5068209;28;20499;-66
2024/01/23 01:58:48;;;;;;;19.20;5.65;;;6.70;99.90;;;;;;5065513;28;20417;-66
2024/01/23 02:01:14;;;;;;;21.10;5.65;;;6.70;99.90;;;;;;5067086;28;20502;-66
2024/01/23 02:03:40;;;;;;;19.08;5.75;;;6.60;99.90;;;;;;5050694;28;20437;-66
2024/01/23 02:06:07;;;;;;;19.30;5.75;;;6.70;99.90;;;;;;5068346;28;20960;-66
2024/01/23 02:08:35;;;;;;;15.48;5.38;;;6.70;99.90;;;;;;5066680;28;20797;-66
2024/01/23 02:11:02;;;;;;;19.30;5.75;;;6.70;99.90;;;;;;5067562;28;20402;-66
2024/01/23 02:13:28;;;;;;;20.80;5.70;;;6.70;99.90;;;;;;5067792;28;20470;-66
2024/01/23 02:15:55;;;;;;;18.83;5.68;;;6.60;99.90;;;;;;5066996;28;20442;-66
2024/01/23 02:18:20;;;;;;;15.65;5.53;;;6.50;99.90;;;;;;5066857;28;20414;-65
2024/01/23 02:20:46;;;;;;;20.15;6.00;;;6.50;99.90;;;;;;5068208;28;20403;-66
2024/01/23 02:23:13;;;;;;;22.33;6.07;;;6.50;99.90;;;;;;5066211;28;20438;-66
2024/01/23 02:25:43;;;;;;;22.70;6.53;;;6.40;99.90;;;;;;5068377;28;20404;-66
2024/01/23 02:28:10;;;;;;;19.43;5.73;;;6.40;99.90;;;;;;5067036;28;20957;-66
2024/01/23 02:30:36;;;;;;;20.40;6.03;;;6.30;99.90;;;;;;5067627;28;20410;-66
2024/01/23 02:33:06;;;;;;;17.80;5.75;;;6.30;99.90;;;;;;5067849;28;20445;-66
2024/01/23 02:35:32;;;;;;;17.63;5.72;;;6.30;99.90;;;;;;5067169;28;20445;-66
2024/01/23 02:37:58;;;;;;;20.77;6.60;;;6.40;99.90;;;;;;5067704;28;20474;-66
2024/01/23 02:40:24;;;;;;;22.88;6.32;;;6.40;99.90;;;;;;5066757;28;20407;-66
2024/01/23 02:42:50;;;;;;;21.92;6.20;;;6.30;99.90;;;;;;5063174;28;20442;-66
2024/01/23 02:45:15;;;;;;;21.90;6.00;;;6.30;99.90;;;;;;5064961;28;20403;-66
2024/01/23 02:47:41;;;;;;;19.57;5.87;;;6.20;99.90;;;;;;5065264;28;20486;-66
2024/01/23 02:50:08;;;;;;;17.30;5.50;;;6.20;99.90;;;;;;5061708;28;20435;-66
2024/01/23 02:52:34;;;;;;;21.33;6.10;;;6.20;99.90;;;;;;5064387;28;20407;-66
2024/01/23 02:55:01;;;;;;;20.40;5.90;;;6.10;99.90;;;;;;5067809;28;20403;-66
2024/01/23 02:57:27;;;;;;;22.73;6.55;;;6.10;99.90;;;;;;5048535;28;20652;-66
2024/01/23 02:59:53;;;;;;;17.17;5.70;;;6.10;99.90;;;;;;5067013;28;20422;-66
2024/01/23 03:02:19;;;;;;;20.02;6.35;;;6.10;99.90;;;;;;5067095;28;20915;-66
2024/01/23 03:04:45;;;;;;;20.92;5.78;;;6.00;99.90;;;;;;5065569;28;20805;-66
2024/01/23 03:07:12;;;;;;;20.65;6.28;;;6.00;99.90;;;;;;5066435;28;20399;-66
2024/01/23 03:09:37;;;;;;;23.20;7.07;;;6.00;99.90;;;;;;5068815;28;20452;-66
2024/01/23 03:12:14;;;;;;;19.75;6.05;;;6.00;99.90;;;;;;5072363;28;20485;-66
2024/01/23 03:14:40;;;;;;;20.85;6.03;;;5.90;99.90;;;;;;5072645;28;20403;-66
2024/01/23 03:17:06;;;;;;;20.23;5.97;;;5.90;99.90;;;;;;5072376;28;20403;-66
2024/01/23 03:19:31;;;;;;;21.52;5.80;;;5.90;99.90;;;;;;5071134;28;20437;-66
2024/01/23 03:21:57;;;;;;;20.52;6.25;;;6.00;99.90;;;;;;5054360;28;20465;-65
2024/01/23 03:24:23;;;;;;;22.10;6.43;;;6.00;99.90;;;;;;5070921;28;20760;-66
2024/01/23 03:26:49;;;;;;;20.40;6.10;;;6.10;99.90;;;;;;5070989;28;20396;-66
2024/01/23 03:29:14;;;;;;;19.45;6.35;;;6.00;99.90;;;;;;5069521;28;20433;-66
2024/01/23 03:31:40;;;;;;;22.93;6.87;;;6.00;99.90;;;;;;5037126;28;20423;-66
2024/01/23 03:34:06;;;;;;;21.40;6.50;;;6.10;99.90;;;;;;5072018;28;20406;-66
2024/01/23 03:36:32;;;;;;;24.90;6.97;;;6.20;99.90;;;;;;5069933;28;20497;-66
2024/01/23 03:38:58;;;;;;;24.45;6.25;;;6.20;99.90;;;;;;5070760;28;20477;-66
2024/01/23 03:41:23;;;;;;;22.27;6.40;;;6.20;99.90;;;;;;5070668;28;20411;-66
2024/01/23 03:43:49;;;;;;;21.77;6.33;;;6.20;99.90;;;;;;5070466;28;20904;-66
2024/01/23 03:46:15;;;;;;;22.65;6.22;;;6.20;99.90;;;;;;5070152;28;20407;-66
2024/01/23 03:48:40;;;;;;;22.13;6.77;;;6.30;99.90;;;;;;5068875;28;20423;-65
2024/01/23 03:51:06;;;;;;;24.40;6.13;;;6.30;99.90;;;;;;5071009;28;20439;-66
2024/01/23 03:53:32;;;;;;;21.15;6.00;;;6.20;99.90;;;;;;5068857;28;20416;-65
2024/01/23 03:55:58;;;;;;;22.35;6.45;;;6.30;99.90;;;;;;5052265;28;20432;-66
2024/01/23 03:58:24;;;;;;;22.90;6.72;;;6.30;99.90;;;;;;5065490;28;20930;-66
2024/01/23 04:00:50;;;;;;;19.35;6.35;;;6.30;99.90;;;;;;5070262;28;20408;-66
2024/01/23 04:03:15;;;;;;;21.77;6.50;;;6.30;99.90;;;;;;5072234;28;20415;-66
2024/01/23 04:05:41;;;;;;;24.60;6.32;;;6.30;99.90;;;;;;5039400;28;20407;-66
2024/01/23 04:08:08;;;;;;;25.08;7.22;;;6.30;99.90;;;;;;5069676;28;20424;-66
2024/01/23 04:10:33;;;;;;;22.50;6.70;;;6.30;99.90;;;;;;5069249;28;20788;-66
2024/01/23 04:12:59;;;;;;;22.02;5.88;;;6.20;99.90;;;;;;5068177;28;20404;-66
2024/01/23 04:15:26;;;;;;;27.70;6.65;;;6.30;99.90;;;;;;5069090;28;20407;-66
2024/01/23 04:17:55;;;;;;;27.53;6.77;;;6.30;99.90;;;;;;5063386;28;20409;-66
2024/01/23 04:20:20;;;;;;;23.83;6.90;;;6.30;99.90;;;;;;5047613;28;20415;-66
2024/01/23 04:22:46;;;;;;;22.30;6.47;;;6.30;99.90;;;;;;5063977;28;20407;-66
2024/01/23 04:25:12;;;;;;;27.10;7.20;;;6.40;99.90;;;;;;5068848;28;20411;-66
2024/01/23 04:27:38;;;;;;;26.65;7.10;;;6.30;99.90;;;;;;5064880;28;20424;-65
2024/01/23 04:30:04;;;;;;;23.95;6.80;;;6.40;99.90;;;;;;5067302;28;20473;-66
2024/01/23 04:32:29;;;;;;;23.33;6.95;;;6.30;99.90;;;;;;5068023;28;20443;-66
2024/01/23 04:34:55;;;;;;;22.40;6.47;;;6.40;99.90;;;;;;5064286;28;21297;-66
2024/01/23 04:37:22;;;;;;;23.80;7.00;;;6.40;99.90;;;;;;5087648;28;20507;-66
2024/01/23 04:39:48;;;;;;;22.70;6.63;;;6.40;99.90;;;;;;5066906;28;21265;-65
2024/01/23 04:42:14;;;;;;;26.58;7.40;;;6.40;99.90;;;;;;5069336;28;20392;-65
2024/01/23 04:44:39;;;;;;;22.83;6.97;;;6.50;99.90;;;;;;5068328;28;20750;-66
2024/01/23 04:47:05;;;;;;;27.53;7.27;;;6.50;99.90;;;;;;5051455;28;20434;-66
2024/01/23 04:49:31;;;;;;;24.20;6.93;;;6.50;99.90;;;;;;5068161;28;20419;-66
2024/01/23 04:51:57;;;;;;;22.50;6.60;;;6.50;99.90;;;;;;5069846;28;20449;-66
2024/01/23 04:54:23;;;;;;;23.80;7.03;;;6.50;99.90;;;;;;5051358;28;20734;-66
2024/01/23 04:56:49;;;;;;;24.45;7.00;;;6.50;99.90;;;;;;5067609;28;20419;-66
2024/01/23 04:59:15;;;;;;;25.07;7.13;;;6.50;99.90;;;;;;5049821;28;20435;-66
2024/01/23 05:01:41;;;;;;;23.50;7.35;;;6.50;99.90;;;;;;5053218;28;20548;-66
2024/01/23 05:04:07;;;;;;;21.48;7.18;;;6.50;99.90;;;;;;5067207;28;20406;-66
2024/01/23 05:06:33;;;;;;;26.13;7.45;;;6.50;99.90;;;;;;5069370;28;20742;-65
2024/01/23 05:08:58;;;;;;;26.73;7.97;;;6.50;99.90;;;;;;5049948;28;20431;-66
2024/01/23 05:11:24;;;;;;;19.37;6.73;;;6.50;99.90;;;;;;5067394;28;20405;-66
2024/01/23 05:13:50;;;;;;;25.85;7.03;;;6.50;99.90;;;;;;5068835;28;20396;-66
2024/01/23 05:16:15;;;;;;;23.23;7.20;;;6.50;99.90;;;;;;5068807;28;20400;-66
2024/01/23 05:18:41;;;;;;;26.37;7.03;;;6.50;99.90;;;;;;5066865;28;20524;-66
2024/01/23 05:21:08;;;;;;;23.33;6.78;;;6.50;99.90;;;;;;5067287;28;20502;-66
2024/01/23 05:23:33;;;;;;;24.73;7.47;;;6.50;99.90;;;;;;5066816;28;20427;-66
2024/01/23 05:25:59;;;;;;;24.03;7.33;;;6.50;99.90;;;;;;5067503;28;20434;-66
2024/01/23 05:28:25;;;;;;;25.50;7.75;;;6.50;99.90;;;;;;5066894;28;21056;-66
2024/01/23 05:30:50;;;;;;;25.45;7.18;;;6.50;99.90;;;;;;5066341;28;20422;-66
2024/01/23 05:33:16;;;;;;;24.97;7.20;;;6.50;99.90;;;;;;5068612;28;20486;-66
2024/01/23 05:35:42;;;;;;;27.38;7.45;;;6.50;99.90;;;;;;5067245;28;20910;-66
2024/01/23 05:38:07;;;;;;;23.87;7.10;;;6.50;99.90;;;;;;5067173;28;20432;-66
2024/01/23 05:40:33;;;;;;;29.33;7.80;;;6.60;99.90;;;;;;5066953;28;20946;-66
2024/01/23 05:42:59;;;;;;;24.85;6.95;;;6.60;99.90;;;;;;5067010;28;20423;-66
2024/01/23 05:45:24;;;;;;;23.80;7.87;;;6.60;99.90;;;;;;5050547;28;20419;-66
2024/01/23 05:47:50;;;;;;;25.98;7.82;;;6.60;99.90;;;;;;5067328;28;20752;-66
2024/01/23 05:50:16;;;;;;;22.73;7.00;;;6.60;99.90;;;;;;5065574;28;20431;-66
2024/01/23 05:52:42;;;;;;;23.20;7.60;;;6.60;99.90;;;;;;5068371;28;20865;-66
2024/01/23 05:55:08;;;;;;;29.65;8.18;;;6.60;99.90;;;;;;5067464;28;20407;-66
2024/01/23 05:57:35;;;;;;;32.13;8.25;;;6.60;99.90;;;;;;5048795;28;20419;-66
2024/01/23 06:00:05;;;;;;;26.83;8.13;;;6.60;99.90;;;;;;5068386;28;20757;-66
2024/01/23 06:02:31;;;;;;;24.90;7.87;;;6.60;99.90;;;;;;5067208;28;20410;-66
2024/01/23 06:04:57;;;;;;;26.17;8.03;;;6.60;99.90;;;;;;5066959;28;20465;-66
2024/01/23 06:07:22;;;;;;;27.60;7.53;;;6.60;99.90;;;;;;5045551;28;20523;-66
2024/01/23 06:09:48;;;;;;;25.63;8.23;;;6.60;99.90;;;;;;5049123;28;20424;-66
2024/01/23 06:12:14;;;;;;;24.10;7.73;;;6.50;99.90;;;;;;5067652;28;20400;-66
2024/01/23 06:14:39;;;;;;;27.10;8.20;;;6.50;99.90;;;;;;5067591;28;20487;-66
2024/01/23 06:17:05;;;;;;;30.03;8.13;;;6.50;99.90;;;;;;5066755;28;20399;-66
2024/01/23 06:19:31;;;;;;;30.50;8.48;;;6.60;99.90;;;;;;5066663;28;20832;-66
2024/01/23 06:21:56;;;;;;;25.25;7.82;;;6.60;99.90;;;;;;5049952;28;20549;-66
2024/01/23 06:24:22;;;;;;;26.40;7.70;;;6.60;99.90;;;;;;5068387;28;20402;-66
2024/01/23 06:26:48;;;;;;;29.20;8.13;;;6.60;99.90;;;;;;5065565;28;20411;-65
2024/01/23 06:29:14;;;;;;;27.50;8.25;;;6.60;99.90;;;;;;5066613;28;20517;-66
2024/01/23 06:31:41;;;;;;;29.80;8.80;;;6.60;99.90;;;;;;5066044;28;20428;-65
2024/01/23 06:34:07;;;;;;;30.83;8.57;;;6.60;99.90;;;;;;5067804;28;20396;-66
2024/01/23 06:36:35;;;;;;;27.90;8.80;;;6.60;99.90;;;;;;5067809;28;20399;-66
2024/01/23 06:39:01;;;;;;;32.58;8.27;;;6.70;99.90;;;;;;5068475;28;20916;-66
2024/01/23 06:41:27;;;;;;;31.88;8.52;;;6.70;99.90;;;;;;5066095;28;20403;-66
2024/01/23 06:43:52;;;;;;;30.63;8.47;;;6.70;99.90;;;;;;5068825;28;20414;-66
2024/01/23 06:46:20;;;;;;;30.67;8.70;;;6.70;99.90;;;;;;5072777;28;20465;-66
2024/01/23 06:48:45;;;;;;;30.17;9.05;;;6.80;99.90;;;;;;5072993;28;20422;-66
2024/01/23 06:51:11;;;;;;;33.10;9.10;;;6.80;99.90;;;;;;5072850;28;20940;-66
2024/01/23 06:53:37;;;;;;;30.30;8.27;;;6.80;99.90;;;;;;5072693;28;20403;-66
2024/01/23 06:56:03;;;;;;;27.87;8.90;;;6.80;99.90;;;;;;5073971;28;20478;-66
2024/01/23 06:58:29;;;;;;;25.67;7.80;;;6.80;99.90;;;;;;5072194;28;20450;-66
2024/01/23 07:00:55;;;;;;;29.55;8.23;;;6.70;99.90;;;;;;5073038;28;20472;-66
2024/01/23 07:03:20;;;;;;;31.13;8.77;;;6.80;99.90;;;;;;5073968;28;20395;-66
2024/01/23 07:05:46;;;;;;;31.20;9.27;;;6.70;99.90;;;;;;5055768;28;20411;-66
2024/01/23 07:08:12;;;;;;;31.23;9.00;;;6.70;99.90;;;;;;5073091;28;20399;-66
2024/01/23 07:10:38;;;;;;;30.17;8.27;;;6.60;99.90;;;;;;5056330;28;20403;-66
2024/01/23 07:13:03;;;;;;;27.50;8.57;;;6.60;99.90;;;;;;5072890;28;20391;-66
2024/01/23 07:15:29;;;;;;;28.70;8.70;;;6.60;99.90;;;;;;5071761;28;20395;-66
2024/01/23 07:17:55;;;;;;;32.87;8.67;;;6.60;99.90;;;;;;5074003;28;20793;-66
2024/01/23 07:20:20;;;;;;;27.92;8.40;;;6.60;99.90;;;;;;5074807;28;20446;-65
2024/01/23 07:22:46;;;;;;;31.57;8.77;;;6.50;99.90;;;;;;5076243;28;20851;-66
2024/01/23 07:25:13;;;;;;;29.63;8.20;;;6.50;99.90;;;;;;5055826;28;20841;-66
2024/01/23 07:27:38;;;;;;;32.93;9.37;;;6.50;99.90;;;;;;5055335;28;20396;-66
2024/01/23 07:30:05;;;;;;;34.93;10.03;;;6.60;99.90;;;;;;5076181;28;20444;-66
2024/01/23 07:32:30;;;;;;;28.03;8.27;;;6.60;99.90;;;;;;5077773;28;20401;-65
2024/01/23 07:34:56;;;;;;;34.23;9.33;;;6.60;99.90;;;;;;5076871;28;20793;-65
2024/01/23 07:37:22;;;;;;;30.80;8.95;;;6.50;99.90;;;;;;5076422;28;20413;-66
2024/01/23 07:39:51;;;;;;;31.10;9.27;;;6.50;99.90;;;;;;5076368;28;20888;-66
2024/01/23 07:42:17;;;;;;;34.90;8.90;;;6.50;99.90;;;;;;5074422;28;20425;-66
2024/01/23 07:44:47;;;;;;;29.63;8.32;;;6.50;99.90;;;;;;5076680;28;20934;-65
2024/01/23 07:47:13;;;;;;;32.03;8.83;;;6.50;99.90;;;;;;5076233;28;20718;-66
2024/01/23 07:49:38;;;;;;;33.00;9.33;;;6.50;99.90;;;;;;5073857;28;20475;-66
2024/01/23 07:52:05;;;;;;;29.88;8.90;;;6.50;99.90;;;;;;5071327;28;20991;-66
2024/01/23 07:54:32;;;;;;;33.47;9.10;;;6.50;99.90;;;;;;5072025;28;20413;-66
2024/01/23 07:56:58;;;;;;;34.60;9.03;;;6.50;99.90;;;;;;5053155;28;20916;-66
2024/01/23 07:59:24;;;;;;;29.40;8.63;;;6.50;99.90;;;;;;5053802;28;20461;-66
2024/01/23 08:01:50;;;;;;;31.47;9.57;;;6.60;99.90;;;;;;5072000;28;20492;-66
2024/01/23 08:04:15;;;;;;;29.65;8.43;;;6.50;99.90;;;;;;5042245;28;20444;-66
2024/01/23 08:06:41;;;;;;;29.45;8.70;;;6.50;99.90;;;;;;5075839;28;20410;-66
2024/01/23 08:09:07;;;;;;;30.33;8.50;;;6.50;99.90;;;;;;5071405;28;20434;-66
2024/01/23 08:11:33;;;;;;;32.28;9.20;;;6.40;99.90;;;;;;5076170;28;20404;-65
2024/01/23 08:13:59;;;;;;;34.88;8.93;;;6.40;99.90;;;;;;5071881;28;20899;-66
2024/01/23 08:16:25;;;;;;;35.63;8.65;;;6.40;99.90;;;;;;5073582;28;20418;-66
2024/01/23 08:18:51;;;;;;;29.33;8.43;;;6.40;99.90;;;;;;5071337;28;20437;-66
2024/01/23 08:21:17;;;;;;;33.83;8.75;;;6.40;99.90;;;;;;5053930;28;20448;-66
2024/01/23 08:23:43;;;;;;;34.53;9.20;;;6.30;99.90;;;;;;5070155;28;20410;-66
2024/01/23 08:26:09;;;;;;;32.57;9.77;;;6.30;99.90;;;;;;5073748;28;20487;-65
2024/01/23 08:28:35;;;;;;;36.83;9.67;;;6.30;99.90;;;;;;5071787;28;20577;-66
2024/01/23 08:31:03;;;;;;;31.58;9.18;;;6.30;99.90;;;;;;5075151;28;20397;-65
2024/01/23 08:33:33;;;;;;;34.55;9.98;;;6.30;99.90;;;;;;5070801;28;20945;-65
2024/01/23 08:36:00;;;;;;;34.17;9.05;;;6.30;99.90;;;;;;5074629;28;20469;-66
2024/01/23 08:38:26;;;;;;;32.97;9.02;;;6.30;99.90;;;;;;5071459;28;20427;-65
2024/01/23 08:40:51;;;;;;;33.13;9.20;;;6.30;99.90;;;;;;5068851;28;20494;-65
2024/01/23 08:43:18;;;;;;;30.95;8.52;;;6.30;99.90;;;;;;5072324;28;20402;-66
2024/01/23 08:45:43;;;;;;;36.30;9.30;;;6.30;99.90;;;;;;5075921;28;20838;-65
2024/01/23 08:48:09;;;;;;;30.40;8.73;;;6.30;99.90;;;;;;5070807;28;20467;-66
2024/01/23 08:50:35;;;;;;;28.20;8.70;;;6.40;99.90;;;;;;5073644;28;20522;-65
2024/01/23 08:53:01;;;;;;;28.75;8.35;;;6.40;99.90;;;;;;5073066;28;20505;-66
2024/01/23 08:55:27;;;;;;;31.60;9.40;;;6.50;99.90;;;;;;5070650;28;20456;-65
2024/01/23 08:57:52;;;;;;;30.53;9.13;;;6.70;99.90;;;;;;5076805;28;20398;-65
2024/01/23 09:00:19;;;;;;;31.88;8.73;;;6.80;99.90;;;;;;5074664;28;20429;-66
2024/01/23 09:02:44;;;;;;;28.15;8.30;;;7.10;99.90;;;;;;5073940;28;20536;-66
2024/01/23 09:05:10;;;;;;;31.40;9.02;;;7.30;99.90;;;;;;5074143;28;20521;-66
2024/01/23 09:07:36;;;;;;;28.03;8.63;;;7.60;99.90;;;;;;5056879;28;20416;-66
2024/01/23 09:10:02;;;;;;;32.77;9.33;;;7.90;99.90;;;;;;5078324;28;20962;-66
2024/01/23 09:12:33;;;;;;;36.53;9.65;;;8.20;99.90;;;;;;5053088;28;21055;-66
2024/01/23 09:14:59;;;;;;;28.58;9.23;;;8.50;99.90;;;;;;5073706;28;20855;-66
2024/01/23 09:17:25;;;;;;;32.50;9.40;;;8.60;99.90;;;;;;5071216;28;20406;-66
2024/01/23 09:19:51;;;;;;;34.10;9.67;;;9.00;99.90;;;;;;5073042;28;20807;-66
2024/01/23 09:22:17;;;;;;;30.37;9.13;;;9.10;99.90;;;;;;5073341;28;20570;-66
2024/01/23 09:24:43;;;;;;;29.95;8.80;;;9.50;99.90;;;;;;5074920;28;20489;-66
2024/01/23 09:27:09;;;;;;;33.92;9.48;;;9.80;99.90;;;;;;5073779;28;20882;-66
2024/01/23 09:29:35;;;;;;;34.25;9.57;;;10.00;99.90;;;;;;5076484;28;20420;-66
2024/01/23 09:32:01;;;;;;;30.30;9.15;;;10.50;99.90;;;;;;5075315;28;20919;-66
2024/01/23 09:34:27;;;;;;;32.07;8.77;;;10.60;99.90;;;;;;5074790;28;20436;-66
2024/01/23 09:36:53;;;;;;;34.42;9.40;;;10.40;99.90;;;;;;5074023;28;21120;-66
2024/01/23 09:39:19;;;;;;;31.33;9.68;;;10.70;99.90;;;;;;5075469;28;20416;-66
2024/01/23 09:41:49;;;;;;;34.07;9.53;;;10.70;99.90;;;;;;5075365;28;20386;-66
2024/01/23 09:44:18;;;;;;;32.90;8.73;;;10.50;99.90;;;;;;5075096;28;20384;-66
2024/01/23 09:46:44;;;;;;;30.83;8.60;;;10.20;99.90;;;;;;5073724;28;20455;-66
2024/01/23 09:49:11;;;;;;;28.13;9.07;;;10.00;99.90;;;;;;5074712;28;21592;-66
2024/01/23 09:51:41;;;;;;;31.27;8.98;;;9.90;99.90;;;;;;5076296;28;21047;-65
2024/01/23 09:54:08;;;;;;;32.45;8.73;;;9.50;99.90;;;;;;5073336;28;20399;-65
2024/01/23 09:56:36;;;;;;;33.13;9.20;;;9.20;99.90;;;;;;5075821;28;20390;-65
2024/01/23 09:59:03;;;;;;;27.10;8.43;;;9.00;99.90;;;;;;5074779;28;20837;-65
2024/01/23 10:01:29;;;;;;;27.77;8.48;;;9.00;99.90;;;;;;5075406;28;20422;-66
2024/01/23 10:03:58;;;;;;;36.45;9.43;;;9.00;99.90;;;;;;5075057;28;20498;-66
2024/01/23 10:06:26;;;;;;;31.58;9.25;;;9.20;99.90;;;;;;5075841;28;20402;-65
2024/01/23 10:08:51;;;;;;;36.95;9.85;;;9.20;99.90;;;;;;5076322;28;20548;-66
2024/01/23 10:11:17;;;;;;;37.30;9.33;;;9.00;99.90;;;;;;5075380;28;20492;-66
2024/01/23 10:13:43;;;;;;;32.85;9.35;;;8.90;99.90;;;;;;5074647;28;20410;-66
2024/01/23 10:16:10;;;;;;;37.88;9.25;;;8.70;99.90;;;;;;5071539;28;20412;-66
2024/01/23 10:18:36;;;;;;;35.05;9.75;;;8.50;99.90;;;;;;5070382;28;20432;-66
2024/01/23 10:21:02;;;;;;;35.90;9.23;;;8.60;99.90;;;;;;5070697;28;20859;-66
2024/01/23 10:23:27;;;;;;;33.70;9.63;;;8.70;99.90;;;;;;5073168;28;20406;-66
2024/01/23 10:25:54;;;;;;;27.92;8.30;;;8.80;99.90;;;;;;5072770;28;20408;-66
2024/01/23 10:28:22;;;;;;;32.40;8.93;;;8.70;99.90;;;;;;5070131;28;20917;-65
2024/01/23 10:30:48;;;;;;;29.75;8.88;;;8.50;99.90;;;;;;5069984;28;20497;-66
2024/01/23 10:33:13;;;;;;;30.10;8.80;;;8.50;99.90;;;;;;5073450;28;20473;-65
2024/01/23 10:35:44;;;;;;;30.70;8.75;;;8.50;99.90;;;;;;5069610;28;20468;-66
2024/01/23 10:38:16;;;;;;;33.50;8.60;;;8.40;99.90;;;;;;5071963;28;20401;-66
2024/01/23 10:40:42;;;;;;;31.67;9.48;;;8.50;99.90;;;;;;5069285;28;20499;-65
2024/01/23 10:43:09;;;;;;;28.07;9.03;;;8.40;99.90;;;;;;5067561;28;20440;-65
2024/01/23 10:45:36;;;;;;;31.25;9.20;;;8.40;99.90;;;;;;5069887;28;20461;-66
2024/01/23 10:48:02;;;;;;;28.30;8.60;;;8.40;99.90;;;;;;5069746;28;20441;-66
2024/01/23 10:50:31;;;;;;;28.52;8.25;;;8.30;99.90;;;;;;5068868;28;20787;-66
2024/01/23 10:53:06;;;;;;;33.43;8.60;;;8.20;99.90;;;;;;5084482;28;20412;-66
2024/01/23 10:55:34;;;;;;;34.60;9.02;;;8.30;99.90;;;;;;5068223;28;20394;-66
2024/01/23 10:58:06;;;;;;;30.77;8.70;;;8.30;99.90;;;;;;5068641;28;20595;-66
2024/01/23 11:00:32;;;;;;;30.40;8.82;;;8.30;99.90;;;;;;5069798;28;20979;-65
2024/01/23 11:03:00;;;;;;;25.52;8.18;;;8.20;99.90;;;;;;5072067;28;20406;-66
2024/01/23 11:05:43;;;;;;;28.23;8.60;;;8.10;99.90;;;;;;5053903;28;20421;-65
2024/01/23 11:08:38;;;;;;;28.05;8.60;;;8.20;99.90;;;;;;5073825;28;20964;-66
2024/01/23 11:11:48;;;;;;;29.23;8.35;;;8.20;99.90;;;;;;5069280;28;20398;-65
2024/01/23 11:14:20;;;;;;;26.55;8.65;;;8.20;99.90;;;;;;5070021;28;20411;-66
2024/01/23 11:17:04;;;;;;;29.10;8.88;;;8.30;99.90;;;;;;5071843;28;20406;-65
2024/01/23 11:19:34;;;;;;;29.83;8.82;;;8.30;99.90;;;;;;5071213;28;20402;-65
2024/01/23 11:22:02;;;;;;;32.53;7.97;;;8.40;99.90;;;;;;5072324;28;20429;-66
2024/01/23 11:24:47;;;;;;;32.47;9.00;;;8.60;99.90;;;;;;5070168;28;21238;-66
2024/01/23 11:27:24;;;;;;;29.10;8.35;;;8.70;99.90;;;;;;5055694;28;20405;-66
2024/01/23 11:29:51;;;;;;;28.47;8.17;;;8.60;99.90;;;;;;5073979;28;20771;-67
2024/01/23 11:32:23;;;;;;;29.33;8.10;;;8.50;99.90;;;;;;5070617;28;20420;-66
2024/01/23 11:35:03;;;;;;;28.65;8.40;;;8.50;99.90;;;;;;5074648;28;20413;-66
2024/01/23 11:37:32;;;;;;;27.40;8.43;;;8.50;99.90;;;;;;5076766;28;20413;-65
2024/01/23 11:40:03;;;;;;;29.75;8.25;;;8.40;99.90;;;;;;5078054;28;20394;-66
2024/01/23 11:42:41;;;;;;;30.02;8.52;;;8.30;99.90;;;;;;5059242;28;20389;-65
2024/01/23 11:45:21;;;;;;;25.17;8.13;;;8.30;99.90;;;;;;5078737;28;20397;-66
2024/01/23 11:47:53;;;;;;;29.08;8.18;;;8.30;99.90;;;;;;5075997;28;20426;-65
2024/01/23 11:50:20;;;;;;;31.25;8.52;;;8.30;99.90;;;;;;5070014;28;20445;-66
2024/01/23 11:52:49;;;;;;;30.08;8.48;;;8.20;99.90;;;;;;5072851;28;20473;-66
2024/01/23 11:55:16;;;;;;;29.67;8.05;;;8.20;99.90;;;;;;5074723;28;21043;-66
2024/01/23 11:57:42;;;;;;;26.30;8.43;;;8.20;99.90;;;;;;5074491;28;20406;-66
2024/01/23 12:00:08;;;;;;;27.95;8.23;;;8.20;99.90;;;;;;5073071;28;20784;-65
2024/01/23 12:02:35;;;;;;;28.45;7.95;;;8.20;99.90;;;;;;5075976;28;20406;-66
2024/01/23 12:05:00;;;;;;;29.10;8.20;;;8.30;99.90;;;;;;5077107;28;20445;-66
2024/01/23 12:07:27;;;;;;;32.63;8.60;;;8.20;99.90;;;;;;5075621;28;20823;-65
2024/01/23 12:09:53;;;;;;;24.73;7.65;;;8.30;99.90;;;;;;5061062;28;20522;-66
2024/01/23 12:12:19;;;;;;;30.13;8.60;;;8.30;99.90;;;;;;5075595;28;20470;-66
2024/01/23 12:14:45;;;;;;;28.58;8.50;;;8.30;99.90;;;;;;5078368;28;20393;-66
2024/01/23 12:17:11;;;;;;;28.52;8.25;;;8.30;99.90;;;;;;5074164;28;20405;-65
2024/01/23 12:19:46;;;;;;;29.90;8.20;;;8.40;99.90;;;;;;5073579;28;20406;-66
2024/01/23 12:22:13;;;;;;;30.70;8.02;;;8.40;99.90;;;;;;5072736;28;20503;-66
2024/01/23 12:24:41;;;;;;;28.65;8.18;;;8.40;99.90;;;;;;5074516;28;20394;-65
2024/01/23 12:27:08;;;;;;;30.05;8.38;;;8.40;99.90;;;;;;5071360;28;20488;-66
2024/01/23 12:29:34;;;;;;;27.92;8.00;;;8.40;99.90;;;;;;5071570;28;20440;-66
2024/01/23 12:32:01;;;;;;;26.98;7.32;;;8.50;99.90;;;;;;5039377;28;20410;-65
2024/01/23 12:34:29;;;;;;;29.37;7.90;;;8.40;99.90;;;;;;5072848;28;20398;-65
2024/01/23 12:36:59;;;;;;;28.67;7.60;;;8.40;99.90;;;;;;5072158;28;20390;-66
2024/01/23 12:39:27;;;;;;;23.80;7.03;;;8.60;99.90;;;;;;5074885;28;20563;-66
2024/01/23 12:41:52;;;;;;;25.42;7.88;;;8.70;99.90;;;;;;5070716;28;20407;-65
2024/01/23 12:44:18;;;;;;;26.40;7.78;;;8.80;99.90;;;;;;5055295;28;20408;-66